sensor_id;sensor_type;location;lat;lon;timestamp;temperature;humidity
4431;DHT22;2228;48.140;11.488;2022-09-13T00:00:48;11.80;99.90
4431;DHT22;2228;48.140;11.488;2022-09-13T00:03:15;11.70;99.90
4431;DHT22;2228;48.140;11.488;2022-09-13T00:05:42;11.70;99.90
4431;DHT22;2228;48.140;11.488;2022-09-13T00:08:10;11.60;99.90
4431;DHT22;2228;48.140;11.488;2022-09-13T00:10:39;11.60;99.90
4431;DHT22;2228;48.140;11.488;2022-09-13T00:13:08;11.60;99.90
4431;DHT22;2228;48.140;11.488;2022-09-13T00:15:36;11.50;99.90
4431;DHT22;2228;48.140;11.488;2022-09-13T00:18:03;11.50;99.90
4431;DHT22;2228;48.140;11.488;2022-09-13T00:20:29;11.50;99.90
4431;DHT22;2228;48.140;11.488;2022-09-13T00:22:56;11.50;99.90
4431;DHT22;2228;48.140;11.488;2022-09-13T00:25:24;11.50;99.90
4431;DHT22;2228;48.140;11.488;2022-09-13T00:27:51;11.50;99.90
4431;DHT22;2228;48.140;11.488;2022-09-13T00:30:18;11.50;99.90
4431;DHT22;2228;48.140;11.488;2022-09-13T00:32:45;11.50;99.90
4431;DHT22;2228;48.140;11.488;2022-09-13T00:35:12;11.50;99.90
4431;DHT22;2228;48.140;11.488;2022-09-13T00:37:39;11.50;99.90
4431;DHT22;2228;48.140;11.488;2022-09-13T00:40:06;11.30;99.90
4431;DHT22;2228;48.140;11.488;2022-09-13T00:42:35;11.30;99.90
4431;DHT22;2228;48.140;11.488;2022-09-13T00:45:11;11.30;99.90
4431;DHT22;2228;48.140;11.488;2022-09-13T00:47:43;11.20;99.90
4431;DHT22;2228;48.140;11.488;2022-09-13T00:50:14;11.20;99.90
4431;DHT22;2228;48.140;11.488;2022-09-13T00:52:45;11.20;99.90
4431;DHT22;2228;48.140;11.488;2022-09-13T00:55:17;11.20;99.90
4431;DHT22;2228;48.140;11.488;2022-09-13T00:57:47;11.30;99.90
4431;DHT22;2228;48.140;11.488;2022-09-13T01:00:17;11.30;99.90
4431;DHT22;2228;48.140;11.488;2022-09-13T01:02:47;11.30;99.90
4431;DHT22;2228;48.140;11.488;2022-09-13T01:05:18;11.30;99.90
4431;DHT22;2228;48.140;11.488;2022-09-13T01:07:46;11.30;99.90
4431;DHT22;2228;48.140;11.488;2022-09-13T01:10:13;11.30;99.90
4431;DHT22;2228;48.140;11.488;2022-09-13T01:12:43;11.20;99.90
4431;DHT22;2228;48.140;11.488;2022-09-13T01:15:14;11.20;99.90
4431;DHT22;2228;48.140;11.488;2022-09-13T01:17:41;11.20;99.90
4431;DHT22;2228;48.140;11.488;2022-09-13T01:20:09;11.20;99.90
4431;DHT22;2228;48.140;11.488;2022-09-13T01:23:14;11.30;99.90
4431;DHT22;2228;48.140;11.488;2022-09-13T01:29:14;11.30;99.90
4431;DHT22;2228;48.140;11.488;2022-09-13T01:31:51;11.30;99.90
4431;DHT22;2228;48.140;11.488;2022-09-13T01:34:27;11.20;99.90
4431;DHT22;2228;48.140;11.488;2022-09-13T01:37:09;11.30;99.90
4431;DHT22;2228;48.140;11.488;2022-09-13T01:39:56;11.20;99.90
4431;DHT22;2228;48.140;11.488;2022-09-13T01:42:28;11.20;99.90
4431;DHT22;2228;48.140;11.488;2022-09-13T01:45:05;11.10;99.90
4431;DHT22;2228;48.140;11.488;2022-09-13T01:47:42;11.10;99.90
4431;DHT22;2228;48.140;11.488;2022-09-13T01:50:16;11.00;99.90
4431;DHT22;2228;48.140;11.488;2022-09-13T01:52:49;11.00;99.90
4431;DHT22;2228;48.140;11.488;2022-09-13T01:55:24;11.00;99.90
4431;DHT22;2228;48.140;11.488;2022-09-13T01:57:56;11.00;99.90
4431;DHT22;2228;48.140;11.488;2022-09-13T02:00:27;11.00;99.90
4431;DHT22;2228;48.140;11.488;2022-09-13T02:03:03;11.00;99.90
4431;DHT22;2228;48.140;11.488;2022-09-13T02:05:36;11.00;99.90
4431;DHT22;2228;48.140;11.488;2022-09-13T02:08:06;11.00;99.90
4431;DHT22;2228;48.140;11.488;2022-09-13T02:10:37;11.00;99.90
4431;DHT22;2228;48.140;11.488;2022-09-13T02:13:09;11.00;99.90
4431;DHT22;2228;48.140;11.488;2022-09-13T02:15:40;11.00;99.90
4431;DHT22;2228;48.140;11.488;2022-09-13T02:18:14;11.00;99.90
4431;DHT22;2228;48.140;11.488;2022-09-13T02:20:43;11.00;99.90
4431;DHT22;2228;48.140;11.488;2022-09-13T02:23:15;10.90;99.90
4431;DHT22;2228;48.140;11.488;2022-09-13T02:25:45;10.90;99.90
4431;DHT22;2228;48.140;11.488;2022-09-13T02:28:17;10.90;99.90
4431;DHT22;2228;48.140;11.488;2022-09-13T02:30:50;10.90;99.90
4431;DHT22;2228;48.140;11.488;2022-09-13T02:33:21;10.90;99.90
4431;DHT22;2228;48.140;11.488;2022-09-13T02:35:53;11.00;99.90
4431;DHT22;2228;48.140;11.488;2022-09-13T02:38:23;11.00;99.90
4431;DHT22;2228;48.140;11.488;2022-09-13T02:40:55;10.90;99.90
4431;DHT22;2228;48.140;11.488;2022-09-13T02:43:27;10.90;99.90
4431;DHT22;2228;48.140;11.488;2022-09-13T02:46:11;10.90;99.90
4431;DHT22;2228;48.140;11.488;2022-09-13T02:48:51;10.90;99.90
4431;DHT22;2228;48.140;11.488;2022-09-13T02:51:27;10.90;99.90
4431;DHT22;2228;48.140;11.488;2022-09-13T02:54:02;10.90;99.90
4431;DHT22;2228;48.140;11.488;2022-09-13T02:56:40;10.80;99.90
4431;DHT22;2228;48.140;11.488;2022-09-13T02:59:13;10.80;99.90
4431;DHT22;2228;48.140;11.488;2022-09-13T03:01:44;10.80;99.90
4431;DHT22;2228;48.140;11.488;2022-09-13T03:04:14;10.80;99.90
4431;DHT22;2228;48.140;11.488;2022-09-13T03:06:41;10.70;99.90
4431;DHT22;2228;48.140;11.488;2022-09-13T03:09:08;10.70;99.90
4431;DHT22;2228;48.140;11.488;2022-09-13T03:11:45;10.70;99.90
4431;DHT22;2228;48.140;11.488;2022-09-13T03:14:30;10.70;99.90
4431;DHT22;2228;48.140;11.488;2022-09-13T03:17:11;10.70;99.90
4431;DHT22;2228;48.140;11.488;2022-09-13T03:20:02;10.70;99.90
4431;DHT22;2228;48.140;11.488;2022-09-13T03:22:48;10.80;99.90
4431;DHT22;2228;48.140;11.488;2022-09-13T03:25:24;10.90;99.90
4431;DHT22;2228;48.140;11.488;2022-09-13T03:28:04;10.80;99.90
4431;DHT22;2228;48.140;11.488;2022-09-13T03:30:37;10.70;99.90
4431;DHT22;2228;48.140;11.488;2022-09-13T03:33:10;10.70;99.90
4431;DHT22;2228;48.140;11.488;2022-09-13T03:35:41;10.60;99.90
4431;DHT22;2228;48.140;11.488;2022-09-13T03:38:12;10.60;99.90
4431;DHT22;2228;48.140;11.488;2022-09-13T03:40:44;10.60;99.90
4431;DHT22;2228;48.140;11.488;2022-09-13T03:43:15;10.50;99.90
4431;DHT22;2228;48.140;11.488;2022-09-13T03:45:46;10.50;99.90
4431;DHT22;2228;48.140;11.488;2022-09-13T03:48:15;10.40;99.90
4431;DHT22;2228;48.140;11.488;2022-09-13T03:50:45;10.50;99.90
4431;DHT22;2228;48.140;11.488;2022-09-13T03:53:16;10.60;99.90
4431;DHT22;2228;48.140;11.488;2022-09-13T03:55:44;10.50;99.90
4431;DHT22;2228;48.140;11.488;2022-09-13T03:58:12;10.50;99.90
4431;DHT22;2228;48.140;11.488;2022-09-13T04:00:40;10.40;99.90
4431;DHT22;2228;48.140;11.488;2022-09-13T04:03:07;10.40;99.90
4431;DHT22;2228;48.140;11.488;2022-09-13T04:05:34;10.40;99.90
4431;DHT22;2228;48.140;11.488;2022-09-13T04:08:03;10.40;99.90
4431;DHT22;2228;48.140;11.488;2022-09-13T04:10:32;10.30;99.90
4431;DHT22;2228;48.140;11.488;2022-09-13T04:12:59;10.30;99.90
4431;DHT22;2228;48.140;11.488;2022-09-13T04:15:26;10.30;99.90
4431;DHT22;2228;48.140;11.488;2022-09-13T04:17:53;10.40;99.90
4431;DHT22;2228;48.140;11.488;2022-09-13T04:20:20;10.40;99.90
4431;DHT22;2228;48.140;11.488;2022-09-13T04:22:50;10.40;99.90
4431;DHT22;2228;48.140;11.488;2022-09-13T04:25:19;10.40;99.90
4431;DHT22;2228;48.140;11.488;2022-09-13T04:27:46;10.30;99.90
4431;DHT22;2228;48.140;11.488;2022-09-13T04:30:14;10.40;99.90
4431;DHT22;2228;48.140;11.488;2022-09-13T04:32:42;10.40;99.90
4431;DHT22;2228;48.140;11.488;2022-09-13T04:35:09;10.40;99.90
4431;DHT22;2228;48.140;11.488;2022-09-13T04:37:36;10.40;99.90
4431;DHT22;2228;48.140;11.488;2022-09-13T04:40:05;10.50;99.90
4431;DHT22;2228;48.140;11.488;2022-09-13T04:42:33;10.40;99.90
4431;DHT22;2228;48.140;11.488;2022-09-13T04:45:01;10.50;99.90
4431;DHT22;2228;48.140;11.488;2022-09-13T04:47:28;10.50;99.90
4431;DHT22;2228;48.140;11.488;2022-09-13T04:49:55;10.50;99.90
4431;DHT22;2228;48.140;11.488;2022-09-13T04:52:22;10.50;99.90
4431;DHT22;2228;48.140;11.488;2022-09-13T04:54:49;10.50;99.90
4431;DHT22;2228;48.140;11.488;2022-09-13T04:57:16;10.50;99.90
4431;DHT22;2228;48.140;11.488;2022-09-13T04:59:44;10.50;99.90
4431;DHT22;2228;48.140;11.488;2022-09-13T05:02:11;10.70;99.90
4431;DHT22;2228;48.140;11.488;2022-09-13T05:04:37;10.60;99.90
4431;DHT22;2228;48.140;11.488;2022-09-13T05:07:04;10.70;99.90
4431;DHT22;2228;48.140;11.488;2022-09-13T05:09:31;10.70;99.90
4431;DHT22;2228;48.140;11.488;2022-09-13T05:11:58;10.80;99.90
4431;DHT22;2228;48.140;11.488;2022-09-13T05:14:25;10.80;99.90
4431;DHT22;2228;48.140;11.488;2022-09-13T05:16:53;10.80;99.90
4431;DHT22;2228;48.140;11.488;2022-09-13T05:19:20;10.90;99.90
4431;DHT22;2228;48.140;11.488;2022-09-13T05:21:46;11.00;99.90
4431;DHT22;2228;48.140;11.488;2022-09-13T05:24:13;11.10;99.90
4431;DHT22;2228;48.140;11.488;2022-09-13T05:26:40;11.30;99.90
4431;DHT22;2228;48.140;11.488;2022-09-13T05:29:07;11.50;99.90
4431;DHT22;2228;48.140;11.488;2022-09-13T05:31:36;11.60;99.90
4431;DHT22;2228;48.140;11.488;2022-09-13T05:34:08;11.70;99.90
4431;DHT22;2228;48.140;11.488;2022-09-13T05:36:36;11.80;99.90
4431;DHT22;2228;48.140;11.488;2022-09-13T05:39:03;11.80;99.90
4431;DHT22;2228;48.140;11.488;2022-09-13T05:41:30;11.90;99.90
4431;DHT22;2228;48.140;11.488;2022-09-13T05:43:57;12.00;99.90
4431;DHT22;2228;48.140;11.488;2022-09-13T05:46:24;12.20;99.90
4431;DHT22;2228;48.140;11.488;2022-09-13T05:48:50;12.20;99.90
4431;DHT22;2228;48.140;11.488;2022-09-13T05:51:19;12.30;99.90
4431;DHT22;2228;48.140;11.488;2022-09-13T05:53:48;12.40;99.90
4431;DHT22;2228;48.140;11.488;2022-09-13T05:56:16;12.60;99.90
4431;DHT22;2228;48.140;11.488;2022-09-13T05:58:46;12.60;99.90
4431;DHT22;2228;48.140;11.488;2022-09-13T06:01:14;12.60;99.90
4431;DHT22;2228;48.140;11.488;2022-09-13T06:03:41;12.70;99.90
4431;DHT22;2228;48.140;11.488;2022-09-13T06:06:09;12.80;99.90
4431;DHT22;2228;48.140;11.488;2022-09-13T06:08:38;12.90;99.90
4431;DHT22;2228;48.140;11.488;2022-09-13T06:11:06;13.10;99.90
4431;DHT22;2228;48.140;11.488;2022-09-13T06:13:34;13.20;1.00
4431;DHT22;2228;48.140;11.488;2022-09-13T06:16:02;13.30;99.90
4431;DHT22;2228;48.140;11.488;2022-09-13T06:18:29;13.30;99.90
4431;DHT22;2228;48.140;11.488;2022-09-13T06:20:57;13.40;99.90
4431;DHT22;2228;48.140;11.488;2022-09-13T06:23:25;13.60;99.90
4431;DHT22;2228;48.140;11.488;2022-09-13T06:26:00;13.70;99.90
4431;DHT22;2228;48.140;11.488;2022-09-13T06:28:27;13.90;99.90
4431;DHT22;2228;48.140;11.488;2022-09-13T06:30:59;14.00;99.90
4431;DHT22;2228;48.140;11.488;2022-09-13T06:33:26;14.20;99.90
4431;DHT22;2228;48.140;11.488;2022-09-13T06:35:53;14.40;99.90
4431;DHT22;2228;48.140;11.488;2022-09-13T06:38:20;14.60;99.90
4431;DHT22;2228;48.140;11.488;2022-09-13T06:40:47;14.90;99.90
4431;DHT22;2228;48.140;11.488;2022-09-13T06:43:15;15.00;99.90
4431;DHT22;2228;48.140;11.488;2022-09-13T06:45:42;15.20;99.90
4431;DHT22;2228;48.140;11.488;2022-09-13T06:48:09;15.30;99.90
4431;DHT22;2228;48.140;11.488;2022-09-13T06:50:35;15.40;99.90
4431;DHT22;2228;48.140;11.488;2022-09-13T06:53:02;15.50;99.90
4431;DHT22;2228;48.140;11.488;2022-09-13T06:55:30;15.80;99.90
4431;DHT22;2228;48.140;11.488;2022-09-13T06:57:58;16.10;99.90
4431;DHT22;2228;48.140;11.488;2022-09-13T07:00:26;16.40;96.20
4431;DHT22;2228;48.140;11.488;2022-09-13T07:02:53;16.80;61.20
4431;DHT22;2228;48.140;11.488;2022-09-13T07:05:20;17.10;36.70
4431;DHT22;2228;48.140;11.488;2022-09-13T07:07:47;17.40;16.00
4431;DHT22;2228;48.140;11.488;2022-09-13T07:10:13;17.70;5.90
4431;DHT22;2228;48.140;11.488;2022-09-13T07:12:40;18.10;1.00
4431;DHT22;2228;48.140;11.488;2022-09-13T07:15:08;18.40;1.00
4431;DHT22;2228;48.140;11.488;2022-09-13T07:17:36;18.70;1.00
4431;DHT22;2228;48.140;11.488;2022-09-13T07:20:03;19.20;1.00
4431;DHT22;2228;48.140;11.488;2022-09-13T07:22:33;19.60;1.00
4431;DHT22;2228;48.140;11.488;2022-09-13T07:25:00;20.10;1.00
4431;DHT22;2228;48.140;11.488;2022-09-13T07:27:26;20.60;1.00
4431;DHT22;2228;48.140;11.488;2022-09-13T07:29:53;21.00;1.00
4431;DHT22;2228;48.140;11.488;2022-09-13T07:32:20;21.30;1.00
4431;DHT22;2228;48.140;11.488;2022-09-13T07:34:49;21.70;1.00
4431;DHT22;2228;48.140;11.488;2022-09-13T07:37:16;22.10;1.00
4431;DHT22;2228;48.140;11.488;2022-09-13T07:39:42;22.30;1.00
4431;DHT22;2228;48.140;11.488;2022-09-13T07:42:09;22.80;1.00
4431;DHT22;2228;48.140;11.488;2022-09-13T07:44:36;23.00;1.00
4431;DHT22;2228;48.140;11.488;2022-09-13T07:47:03;23.00;1.00
4431;DHT22;2228;48.140;11.488;2022-09-13T07:49:30;23.10;1.00
4431;DHT22;2228;48.140;11.488;2022-09-13T07:51:58;23.30;1.00
4431;DHT22;2228;48.140;11.488;2022-09-13T07:54:25;23.40;1.00
4431;DHT22;2228;48.140;11.488;2022-09-13T07:56:52;23.40;1.00
4431;DHT22;2228;48.140;11.488;2022-09-13T07:59:19;23.60;1.00
4431;DHT22;2228;48.140;11.488;2022-09-13T08:01:47;23.90;1.00
4431;DHT22;2228;48.140;11.488;2022-09-13T08:04:15;24.00;1.00
4431;DHT22;2228;48.140;11.488;2022-09-13T08:06:43;24.40;1.00
4431;DHT22;2228;48.140;11.488;2022-09-13T08:09:13;24.60;1.00
4431;DHT22;2228;48.140;11.488;2022-09-13T08:11:41;25.10;1.00
4431;DHT22;2228;48.140;11.488;2022-09-13T08:14:10;25.50;1.00
4431;DHT22;2228;48.140;11.488;2022-09-13T08:16:38;25.40;1.00
4431;DHT22;2228;48.140;11.488;2022-09-13T08:19:07;25.40;1.00
4431;DHT22;2228;48.140;11.488;2022-09-13T08:21:37;25.00;1.00
4431;DHT22;2228;48.140;11.488;2022-09-13T08:24:06;24.30;1.00
4431;DHT22;2228;48.140;11.488;2022-09-13T08:26:35;24.00;1.00
4431;DHT22;2228;48.140;11.488;2022-09-13T08:29:04;24.00;1.00
4431;DHT22;2228;48.140;11.488;2022-09-13T08:31:31;23.90;1.00
4431;DHT22;2228;48.140;11.488;2022-09-13T08:33:58;23.90;1.00
4431;DHT22;2228;48.140;11.488;2022-09-13T08:36:27;23.80;1.00
4431;DHT22;2228;48.140;11.488;2022-09-13T08:38:55;23.60;1.00
4431;DHT22;2228;48.140;11.488;2022-09-13T08:41:46;23.50;1.00
4431;DHT22;2228;48.140;11.488;2022-09-13T08:44:21;23.50;1.00
4431;DHT22;2228;48.140;11.488;2022-09-13T08:46:53;23.70;1.00
4431;DHT22;2228;48.140;11.488;2022-09-13T08:49:27;23.80;1.00
4431;DHT22;2228;48.140;11.488;2022-09-13T08:51:56;23.90;1.00
4431;DHT22;2228;48.140;11.488;2022-09-13T08:54:24;24.10;1.00
4431;DHT22;2228;48.140;11.488;2022-09-13T08:56:58;24.30;1.00
4431;DHT22;2228;48.140;11.488;2022-09-13T08:59:39;24.50;1.00
4431;DHT22;2228;48.140;11.488;2022-09-13T09:02:28;24.60;1.00
4431;DHT22;2228;48.140;11.488;2022-09-13T09:05:03;25.00;1.00
4431;DHT22;2228;48.140;11.488;2022-09-13T09:07:33;25.30;1.00
4431;DHT22;2228;48.140;11.488;2022-09-13T09:10:05;25.50;1.00
4431;DHT22;2228;48.140;11.488;2022-09-13T09:12:37;25.90;1.00
4431;DHT22;2228;48.140;11.488;2022-09-13T09:15:13;25.90;1.00
4431;DHT22;2228;48.140;11.488;2022-09-13T09:17:47;25.80;1.00
4431;DHT22;2228;48.140;11.488;2022-09-13T09:20:22;25.90;1.00
4431;DHT22;2228;48.140;11.488;2022-09-13T09:22:50;25.80;1.00
4431;DHT22;2228;48.140;11.488;2022-09-13T09:25:22;25.60;1.00
4431;DHT22;2228;48.140;11.488;2022-09-13T09:27:51;25.80;1.00
4431;DHT22;2228;48.140;11.488;2022-09-13T09:30:18;25.70;1.00
4431;DHT22;2228;48.140;11.488;2022-09-13T09:32:57;25.90;1.00
4431;DHT22;2228;48.140;11.488;2022-09-13T09:35:41;25.80;1.00
4431;DHT22;2228;48.140;11.488;2022-09-13T09:38:24;25.80;1.00
4431;DHT22;2228;48.140;11.488;2022-09-13T09:40:58;25.80;1.00
4431;DHT22;2228;48.140;11.488;2022-09-13T09:43:31;25.70;1.00
4431;DHT22;2228;48.140;11.488;2022-09-13T09:46:01;25.90;1.00
4431;DHT22;2228;48.140;11.488;2022-09-13T09:48:37;25.90;1.00
4431;DHT22;2228;48.140;11.488;2022-09-13T09:51:07;25.90;1.00
4431;DHT22;2228;48.140;11.488;2022-09-13T09:53:39;25.90;1.00
4431;DHT22;2228;48.140;11.488;2022-09-13T09:56:20;25.80;1.00
4431;DHT22;2228;48.140;11.488;2022-09-13T09:58:50;25.70;1.00
4431;DHT22;2228;48.140;11.488;2022-09-13T10:01:23;25.90;1.00
4431;DHT22;2228;48.140;11.488;2022-09-13T10:03:56;25.90;1.00
4431;DHT22;2228;48.140;11.488;2022-09-13T10:06:25;26.10;1.00
4431;DHT22;2228;48.140;11.488;2022-09-13T10:08:57;26.20;1.00
4431;DHT22;2228;48.140;11.488;2022-09-13T10:11:38;26.20;1.00
4431;DHT22;2228;48.140;11.488;2022-09-13T10:14:35;26.40;1.00
4431;DHT22;2228;48.140;11.488;2022-09-13T10:17:05;26.40;1.00
4431;DHT22;2228;48.140;11.488;2022-09-13T10:19:32;26.60;1.00
4431;DHT22;2228;48.140;11.488;2022-09-13T10:22:01;27.00;1.00
4431;DHT22;2228;48.140;11.488;2022-09-13T10:24:28;27.80;1.00
4431;DHT22;2228;48.140;11.488;2022-09-13T10:26:55;28.10;1.00
4431;DHT22;2228;48.140;11.488;2022-09-13T10:29:25;28.40;1.00
4431;DHT22;2228;48.140;11.488;2022-09-13T10:31:53;28.60;1.00
4431;DHT22;2228;48.140;11.488;2022-09-13T10:34:25;28.80;1.00
4431;DHT22;2228;48.140;11.488;2022-09-13T10:36:56;28.70;1.00
4431;DHT22;2228;48.140;11.488;2022-09-13T10:39:25;28.60;1.00
4431;DHT22;2228;48.140;11.488;2022-09-13T10:41:56;28.50;1.00
4431;DHT22;2228;48.140;11.488;2022-09-13T10:44:29;28.80;1.00
4431;DHT22;2228;48.140;11.488;2022-09-13T10:46:59;29.00;1.00
4431;DHT22;2228;48.140;11.488;2022-09-13T10:49:45;29.40;1.00
4431;DHT22;2228;48.140;11.488;2022-09-13T10:52:28;29.60;1.00
4431;DHT22;2228;48.140;11.488;2022-09-13T10:55:23;30.10;1.00
4431;DHT22;2228;48.140;11.488;2022-09-13T10:57:52;30.50;1.00
4431;DHT22;2228;48.140;11.488;2022-09-13T11:00:22;31.30;1.00
4431;DHT22;2228;48.140;11.488;2022-09-13T11:03:13;32.20;99.90
4431;DHT22;2228;48.140;11.488;2022-09-13T11:05:51;31.80;99.90
4431;DHT22;2228;48.140;11.488;2022-09-13T11:08:32;31.40;99.90
4431;DHT22;2228;48.140;11.488;2022-09-13T11:11:13;31.10;99.90
4431;DHT22;2228;48.140;11.488;2022-09-13T11:13:59;30.80;99.90
4431;DHT22;2228;48.140;11.488;2022-09-13T11:16:40;31.60;99.90
4431;DHT22;2228;48.140;11.488;2022-09-13T11:22:21;31.30;99.90
4431;DHT22;2228;48.140;11.488;2022-09-13T11:25:01;31.10;99.90
4431;DHT22;2228;48.140;11.488;2022-09-13T11:27:37;30.90;99.90
4431;DHT22;2228;48.140;11.488;2022-09-13T11:30:10;31.60;99.90
4431;DHT22;2228;48.140;11.488;2022-09-13T11:32:51;32.10;99.90
4431;DHT22;2228;48.140;11.488;2022-09-13T11:35:33;32.40;99.90
4431;DHT22;2228;48.140;11.488;2022-09-13T11:38:10;32.60;99.90
4431;DHT22;2228;48.140;11.488;2022-09-13T11:40:47;32.10;99.90
4431;DHT22;2228;48.140;11.488;2022-09-13T11:43:27;31.30;99.90
4431;DHT22;2228;48.140;11.488;2022-09-13T11:46:05;30.80;99.90
4431;DHT22;2228;48.140;11.488;2022-09-13T11:51:53;30.50;99.90
4431;DHT22;2228;48.140;11.488;2022-09-13T11:54:35;30.30;99.90
4431;DHT22;2228;48.140;11.488;2022-09-13T11:57:08;30.00;99.90
4431;DHT22;2228;48.140;11.488;2022-09-13T11:59:39;29.90;99.90
4431;DHT22;2228;48.140;11.488;2022-09-13T12:02:17;29.90;99.90
4431;DHT22;2228;48.140;11.488;2022-09-13T12:04:49;30.10;99.90
4431;DHT22;2228;48.140;11.488;2022-09-13T12:07:28;29.90;99.90
4431;DHT22;2228;48.140;11.488;2022-09-13T12:10:01;30.00;99.90
4431;DHT22;2228;48.140;11.488;2022-09-13T12:12:33;30.10;99.90
4431;DHT22;2228;48.140;11.488;2022-09-13T12:15:04;30.30;99.90
4431;DHT22;2228;48.140;11.488;2022-09-13T12:17:36;30.00;99.90
4431;DHT22;2228;48.140;11.488;2022-09-13T12:20:10;29.90;99.90
4431;DHT22;2228;48.140;11.488;2022-09-13T12:22:40;30.30;99.90
4431;DHT22;2228;48.140;11.488;2022-09-13T12:25:18;30.50;99.90
4431;DHT22;2228;48.140;11.488;2022-09-13T12:27:50;30.60;99.90
4431;DHT22;2228;48.140;11.488;2022-09-13T12:30:20;31.10;99.90
4431;DHT22;2228;48.140;11.488;2022-09-13T12:32:48;31.50;99.90
4431;DHT22;2228;48.140;11.488;2022-09-13T12:35:21;32.30;99.90
4431;DHT22;2228;48.140;11.488;2022-09-13T12:38:16;32.80;99.90
4431;DHT22;2228;48.140;11.488;2022-09-13T12:41:08;32.80;99.90
4431;DHT22;2228;48.140;11.488;2022-09-13T12:46:50;33.50;99.90
4431;DHT22;2228;48.140;11.488;2022-09-13T12:49:43;33.70;99.90
4431;DHT22;2228;48.140;11.488;2022-09-13T12:52:29;34.20;99.90
4431;DHT22;2228;48.140;11.488;2022-09-13T12:55:22;34.30;99.90
4431;DHT22;2228;48.140;11.488;2022-09-13T12:58:00;33.60;99.90
4431;DHT22;2228;48.140;11.488;2022-09-13T13:00:31;33.20;99.90
4431;DHT22;2228;48.140;11.488;2022-09-13T13:03:03;33.40;99.90
4431;DHT22;2228;48.140;11.488;2022-09-13T13:05:38;33.00;99.90
4431;DHT22;2228;48.140;11.488;2022-09-13T13:08:24;32.50;99.90
4431;DHT22;2228;48.140;11.488;2022-09-13T13:11:02;32.30;99.90
4431;DHT22;2228;48.140;11.488;2022-09-13T13:13:34;32.40;99.90
4431;DHT22;2228;48.140;11.488;2022-09-13T13:16:05;33.00;99.90
4431;DHT22;2228;48.140;11.488;2022-09-13T13:18:43;33.10;99.90
4431;DHT22;2228;48.140;11.488;2022-09-13T13:21:27;34.10;99.90
4431;DHT22;2228;48.140;11.488;2022-09-13T13:27:00;35.00;99.90
4431;DHT22;2228;48.140;11.488;2022-09-13T13:29:28;34.20;99.90
4431;DHT22;2228;48.140;11.488;2022-09-13T13:32:09;33.70;99.90
4431;DHT22;2228;48.140;11.488;2022-09-13T13:34:43;34.40;99.90
4431;DHT22;2228;48.140;11.488;2022-09-13T13:37:27;35.20;99.90
4431;DHT22;2228;48.140;11.488;2022-09-13T13:40:19;35.80;99.90
4431;DHT22;2228;48.140;11.488;2022-09-13T13:42:48;35.70;99.90
4431;DHT22;2228;48.140;11.488;2022-09-13T13:45:20;35.90;99.90
4431;DHT22;2228;48.140;11.488;2022-09-13T13:47:54;35.50;99.90
4431;DHT22;2228;48.140;11.488;2022-09-13T13:50:31;35.00;99.90
4431;DHT22;2228;48.140;11.488;2022-09-13T13:53:17;34.50;99.90
4431;DHT22;2228;48.140;11.488;2022-09-13T13:55:46;34.10;99.90
4431;DHT22;2228;48.140;11.488;2022-09-13T13:58:30;33.30;99.90
4431;DHT22;2228;48.140;11.488;2022-09-13T14:01:00;33.10;99.90
4431;DHT22;2228;48.140;11.488;2022-09-13T14:03:41;33.70;99.90
4431;DHT22;2228;48.140;11.488;2022-09-13T14:06:18;33.80;99.90
4431;DHT22;2228;48.140;11.488;2022-09-13T14:08:57;34.40;99.90
4431;DHT22;2228;48.140;11.488;2022-09-13T14:11:39;35.10;99.90
4431;DHT22;2228;48.140;11.488;2022-09-13T14:17:27;34.20;99.90
4431;DHT22;2228;48.140;11.488;2022-09-13T14:19:59;33.20;99.90
4431;DHT22;2228;48.140;11.488;2022-09-13T14:22:28;32.30;99.90
4431;DHT22;2228;48.140;11.488;2022-09-13T14:24:57;31.60;99.90
4431;DHT22;2228;48.140;11.488;2022-09-13T14:27:26;31.40;99.90
4431;DHT22;2228;48.140;11.488;2022-09-13T14:29:58;31.50;99.90
4431;DHT22;2228;48.140;11.488;2022-09-13T14:32:27;31.10;99.90
4431;DHT22;2228;48.140;11.488;2022-09-13T14:34:57;31.40;99.90
4431;DHT22;2228;48.140;11.488;2022-09-13T14:37:27;31.90;99.90
4431;DHT22;2228;48.140;11.488;2022-09-13T14:39:59;32.30;99.90
4431;DHT22;2228;48.140;11.488;2022-09-13T14:42:37;32.20;99.90
4431;DHT22;2228;48.140;11.488;2022-09-13T14:45:11;31.60;99.90
4431;DHT22;2228;48.140;11.488;2022-09-13T14:47:46;31.30;99.90
4431;DHT22;2228;48.140;11.488;2022-09-13T14:50:17;31.10;99.90
4431;DHT22;2228;48.140;11.488;2022-09-13T14:52:48;31.40;99.90
4431;DHT22;2228;48.140;11.488;2022-09-13T14:55:19;32.30;99.90
4431;DHT22;2228;48.140;11.488;2022-09-13T14:57:48;33.00;99.90
4431;DHT22;2228;48.140;11.488;2022-09-13T15:00:21;33.00;99.90
4431;DHT22;2228;48.140;11.488;2022-09-13T15:02:50;32.60;99.90
4431;DHT22;2228;48.140;11.488;2022-09-13T15:05:19;32.20;99.90
4431;DHT22;2228;48.140;11.488;2022-09-13T15:07:46;32.10;99.90
4431;DHT22;2228;48.140;11.488;2022-09-13T15:10:23;31.90;99.90
4431;DHT22;2228;48.140;11.488;2022-09-13T15:12:52;31.70;99.90
4431;DHT22;2228;48.140;11.488;2022-09-13T15:15:33;31.40;99.90
4431;DHT22;2228;48.140;11.488;2022-09-13T15:18:02;31.20;99.90
4431;DHT22;2228;48.140;11.488;2022-09-13T15:20:44;30.90;99.90
4431;DHT22;2228;48.140;11.488;2022-09-13T15:23:14;30.50;99.90
4431;DHT22;2228;48.140;11.488;2022-09-13T15:25:47;30.30;99.90
4431;DHT22;2228;48.140;11.488;2022-09-13T15:28:21;30.00;99.90
4431;DHT22;2228;48.140;11.488;2022-09-13T15:30:50;29.90;99.90
4431;DHT22;2228;48.140;11.488;2022-09-13T15:33:26;29.80;99.90
4431;DHT22;2228;48.140;11.488;2022-09-13T15:36:26;29.80;99.90
4431;DHT22;2228;48.140;11.488;2022-09-13T15:39:01;29.90;99.90
4431;DHT22;2228;48.140;11.488;2022-09-13T15:41:30;29.80;99.90
4431;DHT22;2228;48.140;11.488;2022-09-13T15:43:58;29.80;99.90
4431;DHT22;2228;48.140;11.488;2022-09-13T15:46:29;29.70;99.90
4431;DHT22;2228;48.140;11.488;2022-09-13T15:48:58;29.50;99.90
4431;DHT22;2228;48.140;11.488;2022-09-13T15:51:25;29.40;99.90
4431;DHT22;2228;48.140;11.488;2022-09-13T15:53:53;29.20;99.90
4431;DHT22;2228;48.140;11.488;2022-09-13T15:56:21;29.00;99.90
4431;DHT22;2228;48.140;11.488;2022-09-13T15:58:52;28.80;99.90
4431;DHT22;2228;48.140;11.488;2022-09-13T16:01:18;28.60;99.90
4431;DHT22;2228;48.140;11.488;2022-09-13T16:03:47;28.40;99.90
4431;DHT22;2228;48.140;11.488;2022-09-13T16:06:13;28.20;99.90
4431;DHT22;2228;48.140;11.488;2022-09-13T16:08:40;28.10;99.90
4431;DHT22;2228;48.140;11.488;2022-09-13T16:11:07;27.90;99.90
4431;DHT22;2228;48.140;11.488;2022-09-13T16:13:34;27.80;99.90
4431;DHT22;2228;48.140;11.488;2022-09-13T16:16:02;27.70;99.90
4431;DHT22;2228;48.140;11.488;2022-09-13T16:18:29;27.60;99.90
4431;DHT22;2228;48.140;11.488;2022-09-13T16:20:57;27.60;99.90
4431;DHT22;2228;48.140;11.488;2022-09-13T16:23:24;27.60;99.90
4431;DHT22;2228;48.140;11.488;2022-09-13T16:25:54;27.70;99.90
4431;DHT22;2228;48.140;11.488;2022-09-13T16:28:22;27.70;99.90
4431;DHT22;2228;48.140;11.488;2022-09-13T16:30:50;27.70;99.90
4431;DHT22;2228;48.140;11.488;2022-09-13T16:33:17;27.60;99.90
4431;DHT22;2228;48.140;11.488;2022-09-13T16:35:44;27.50;99.90
4431;DHT22;2228;48.140;11.488;2022-09-13T16:38:13;27.40;99.90